YBG weather

CFB Bagotville
Bagotville, Quebec, Canada

Public forecast

Using degrees Celsius for public forecast. Weather courtesy of forecast.io.

Current aviation weather report (METAR) for CFB Bagotville

Retrieved 2020/05/26 17:00 UTC (22 minutes ago):

CYBG 261700Z 34007KT 25SM BKN030 BKN100 25/18 A3007 RMK SC5AC1 SLP183

Aviation forecast (TAF) for CFB Bagotville

Retrieved 2020/05/26 12:33 UTC (5 hours ago):

TAF TAF CYBG 261130Z 2612/2712 VRB03KT P6SM BKN050 OVC120 TEMPO 2612/2618 P6SM -SHRA BECMG 2614/2616 30008KT FM261800 30005KT P6SM -SHRA BKN040 OVC130 PROB30 2619/2624 VRB15G25KT 1SM TSRA BR OVC040CB FM270000 08008KT 3SM -SHRA BR FEW008 BKN020 OVC030 FM270400 09008KT 2SM BR SCT005 OVC010 PROB30 2706/2710 3/4SM BR OVC005 RMK NXT FCST BY 261800Z